Map

Track Data

SID SEASON NUMBER BASIN SUBBASIN NAME ISO_TIME NATURE LAT LON WMO_WIND WMO_PRES WMO_AGENCY TRACK_TYPE DIST2LAND LANDFALL IFLAG USA_AGENCY USA_ATCF_ID USA_LAT USA_LON USA_RECORD USA_STATUS USA_WIND USA_PRES USA_SSHS USA_R34_NE USA_R34_SE USA_R34_SW USA_R34_NW USA_R50_NE USA_R50_SE USA_R50_SW USA_R50_NW USA_R64_NE USA_R64_SE USA_R64_SW USA_R64_NW USA_POCI USA_ROCI USA_RMW USA_EYE TOKYO_LAT TOKYO_LON TOKYO_GRADE TOKYO_WIND TOKYO_PRES TOKYO_R50_DIR TOKYO_R50_LONG TOKYO_R50_SHORT TOKYO_R30_DIR TOKYO_R30_LONG TOKYO_R30_SHORT TOKYO_LAND CMA_LAT CMA_LON CMA_CAT CMA_WIND CMA_PRES HKO_LAT HKO_LON HKO_CAT HKO_WIND HKO_PRES NEWDELHI_LAT NEWDELHI_LON NEWDELHI_GRADE NEWDELHI_WIND NEWDELHI_PRES NEWDELHI_CI NEWDELHI_DP NEWDELHI_POCI REUNION_LAT REUNION_LON REUNION_TYPE REUNION_WIND REUNION_PRES REUNION_TNUM REUNION_CI REUNION_RMW REUNION_R34_NE REUNION_R34_SE REUNION_R34_SW REUNION_R34_NW REUNION_R50_NE REUNION_R50_SE REUNION_R50_SW REUNION_R50_NW REUNION_R64_NE REUNION_R64_SE REUNION_R64_SW REUNION_R64_NW BOM_LAT BOM_LON BOM_TYPE BOM_WIND BOM_PRES BOM_TNUM BOM_CI BOM_RMW BOM_R34_NE BOM_R34_SE BOM_R34_SW BOM_R34_NW BOM_R50_NE BOM_R50_SE BOM_R50_SW BOM_R50_NW BOM_R64_NE BOM_R64_SE BOM_R64_SW BOM_R64_NW BOM_ROCI BOM_POCI BOM_EYE BOM_POS_METHOD BOM_PRES_METHOD NADI_LAT NADI_LON NADI_CAT NADI_WIND NADI_PRES WELLINGTON_LAT WELLINGTON_LON WELLINGTON_WIND WELLINGTON_PRES DS824_LAT DS824_LON DS824_STAGE DS824_WIND DS824_PRES TD9636_LAT TD9636_LON TD9636_STAGE TD9636_WIND TD9636_PRES TD9635_LAT TD9635_LON TD9635_WIND TD9635_PRES TD9635_ROCI NEUMANN_LAT NEUMANN_LON NEUMANN_CLASS NEUMANN_WIND NEUMANN_PRES MLC_LAT MLC_LON MLC_CLASS MLC_WIND MLC_PRES USA_GUST BOM_GUST BOM_GUST_PER REUNION_GUST REUNION_GUST_PER USA_SEAHGT USA_SEARAD_NE USA_SEARAD_SE USA_SEARAD_SW USA_SEARAD_NW STORM_SPEED STORM_DIR
1941220N21089 1941 42 NI BB NOT_NAMED 1941-08-08 00:00:00 TS 20.6000 88.5000 main 111 78 _________O____ -1 20.6000 88.5000 TC 34 6 333
1941220N21089 1941 42 NI BB NOT_NAMED 1941-08-08 03:00:00 TS 20.8733 88.3517 main 78 45 _________PO___ -1 21.0100 88.2776 TC 33 20.6000 88.5000 2 8 329
1941220N21089 1941 42 NI BB NOT_NAMED 1941-08-08 06:00:00 TS 21.2465 88.0758 main 45 11 _________OP___ -1 21.4000 88.0000 TC 32 21.0163 88.1895 2 9 322
1941220N21089 1941 42 NI BB NOT_NAMED 1941-08-08 09:00:00 TS 21.5997 87.7340 main 11 0 _________PP___ -1 21.7450 87.6301 TC 31 21.4060 87.8724 2 9 314
1941220N21089 1941 42 NI BB NOT_NAMED 1941-08-08 12:00:00 TS 21.8713 87.3720 main 0 0 _________OP___ -1 22.0000 87.2000 TC 30 21.7426 87.5441 2 8 304
1941220N21089 1941 42 NI BB NOT_NAMED 1941-08-08 15:00:00 TS 22.0650 86.9786 main 0 0 _________PO___ -1 22.1299 86.7572 TC 30 22.0000 87.2000 1 8 293
1941220N21089 1941 42 NI BB NOT_NAMED 1941-08-08 18:00:00 TS 22.1813 86.5666 main 0 0 _________OP___ -1 22.2000 86.3000 TC 30 22.1627 86.8332 1 8 285
1941220N21089 1941 42 NI BB NOT_NAMED 1941-08-08 21:00:00 TS 22.2751 86.1600 main 0 0 _________PP___ -1 22.2919 85.8947 TC 30 22.2582 86.4253 1 8 282
1941220N21089 1941 42 NI BB NOT_NAMED 1941-08-09 00:00:00 TS 22.3623 85.6775 main 0 0 _________OP___ -1 22.4000 85.4000 TC 30 22.3247 85.9549 1 10 281
1941220N21089 1941 42 NI BB NOT_NAMED 1941-08-09 03:00:00 TS 22.4713 85.0475 main 0 0 _________PO___ -1 22.5427 84.6950 TC 30 22.4000 85.4000 1 13 282
1941220N21089 1941 42 NI BB NOT_NAMED 1941-08-09 06:00:00 TS 22.6202 84.3183 main 0 0 _________OP___ -1 22.7000 83.9000 TC 30 22.5403 84.7365 1 14 282
1941220N21089 1941 42 NI BB NOT_NAMED 1941-08-09 09:00:00 TS 22.7715 83.5701 main 0 0 _________PP___ -1 22.8496 83.1498 TC 30 22.6933 83.9903 1 14 282
1941220N21089 1941 42 NI BB NOT_NAMED 1941-08-09 12:00:00 TS 22.9247 82.7994 main 0 0 _________OP___ -1 23.0000 82.4000 TC 30 22.8494 83.1989 1 15 282
1941220N21089 1941 42 NI BB NOT_NAMED 1941-08-09 15:00:00 TS 23.0786 82.0250 main 0 0 _________PO___ -1 23.1571 81.6500 TC 30 23.0000 82.4000 1 15 282
1941220N21089 1941 42 NI BB NOT_NAMED 1941-08-09 18:00:00 TS 23.2266 81.2448 main 0 0 _________OP___ -1 23.3000 80.9000 TC 30 23.1531 81.5896 1 15 281
1941220N21089 1941 42 NI BB NOT_NAMED 1941-08-09 21:00:00 TS 23.3595 80.4430 main 0 0 _________PP___ -1 23.4228 80.0976 TC 30 23.2962 80.7884 1 14 279
1941220N21089 1941 42 NI BB NOT_NAMED 1941-08-10 00:00:00 TS 23.4580 79.7214 main 0 0 _________OP___ -1 23.5000 79.4000 TC 30 23.4159 80.0428 1 12 277
1941220N21089 1941 42 NI BB NOT_NAMED 1941-08-10 03:00:00 TS 23.5072 79.1699 main 0 0 _________PO___ -1 23.5144 78.9398 TC 30 23.5000 79.4000 1 9 274
1941220N21089 1941 42 NI BB NOT_NAMED 1941-08-10 06:00:00 TS 23.5150 78.7480 main 0 0 _________OP___ -1 23.5000 78.6000 TC 30 23.5300 78.8960 1 7 271
1941220N21089 1941 42 NI BB NOT_NAMED 1941-08-10 09:00:00 TS 23.5139 78.3633 main 0 0 _________PP___ -1 23.5000 78.2275 TC 30 23.5279 78.4990 1 7 269
1941220N21089 1941 42 NI BB NOT_NAMED 1941-08-10 12:00:00 TS 23.5059 78.0388 main 0 0 _________OP___ -1 23.5000 77.9000 TC 30 23.5119 78.1775 1 5 268
1941220N21089 1941 42 NI AS NOT_NAMED 1941-08-10 15:00:00 TS 23.4962 77.7675 main 0 0 _________PO___ -1 23.4924 77.6350 TC 30 23.5000 77.9000 1 5 270
1941220N21089 1941 42 NI AS NOT_NAMED 1941-08-10 18:00:00 TS 23.5088 77.4989 main 0 0 _________OP___ -1 23.5000 77.4000 TC 30 23.5175 77.5979 1 5 276
1941220N21089 1941 42 NI AS NOT_NAMED 1941-08-10 21:00:00 TS 23.5461 77.2338 main 0 0 _________PP___ -1 23.5500 77.1351 TC 30 23.5422 77.3326 1 5 280
1941220N21089 1941 42 NI AS NOT_NAMED 1941-08-11 00:00:00 TS 23.5854 77.0005 main 0 0 _________OP___ -1 23.6000 76.9000 TC 30 23.5707 77.1010 1 4 278
1941220N21089 1941 42 NI AS NOT_NAMED 1941-08-11 03:00:00 TS 23.6000 76.8175 main 0 0 _________PO___ -1 23.5999 76.7349 TC 30 23.6000 76.9000 1 3 274
1941220N21089 1941 42 NI AS NOT_NAMED 1941-08-11 06:00:00 TS 23.6083 76.6606 main 0 0 _________OP___ -1 23.6000 76.6000 TC 30 23.6167 76.7211 1 3 278
1941220N21089 1941 42 NI AS NOT_NAMED 1941-08-11 09:00:00 TS 23.6386 76.5099 main 0 0 _________PP___ -1 23.6425 76.4500 TC 30 23.6347 76.5699 1 3 285
1941220N21089 1941 42 NI AS NOT_NAMED 1941-08-11 12:00:00 TS 23.6802 76.3668 main 0 0 _________OP___ -1 23.7000 76.3000 TC 30 23.6605 76.4336 1 3 288
1941220N21089 1941 42 NI AS NOT_NAMED 1941-08-11 15:00:00 TS 23.7212 76.2250 main 0 0 _________PO___ -1 23.7425 76.1500 TC 30 23.7000 76.3000 1 3 290
1941220N21089 1941 42 NI AS NOT_NAMED 1941-08-11 18:00:00 TS 23.7721 76.0870 main 0 0 _________OP___ -1 23.8000 76.0000 TC 30 23.7441 76.1741 1 3 297
1941220N21089 1941 42 NI AS NOT_NAMED 1941-08-11 21:00:00 TS 23.8447 75.9585 main 0 0 _________PP___ -1 23.8849 75.8724 TC 30 23.8046 76.0445 1 3 303
1941220N21089 1941 42 NI AS NOT_NAMED 1941-08-12 00:00:00 TS 23.9439 75.7963 main 0 0 _________OP___ -1 24.0000 75.7000 TC 30 23.8878 75.8927 1 4 302
1941220N21089 1941 42 NI AS NOT_NAMED 1941-08-12 03:00:00 TS 24.0675 75.5612 main 0 0 _________PO___ -1 24.1350 75.4225 TC 30 24.0000 75.7000 1 6 300
1941220N21089 1941 42 NI AS NOT_NAMED 1941-08-12 06:00:00 TS 24.2213 75.2636 main 0 0 _________OP___ -1 24.3000 75.1000 TC 30 24.1426 75.4272 1 7 301
1941220N21089 1941 42 NI AS NOT_NAMED 1941-08-12 09:00:00 TS 24.4028 74.9502 main 0 0 _________PP___ -1 24.4925 74.7850 TC 30 24.3130 75.1155 1 7 304
1941220N21089 1941 42 NI AS NOT_NAMED 1941-08-12 12:00:00 TS 24.6010 74.6480 main 0 0 _________OP___ -1 24.7000 74.5000 TC 30 24.5019 74.7959 1 6 308
1941220N21089 1941 42 NI AS NOT_NAMED 1941-08-12 15:00:00 TS 24.7999 74.3924 main 0 0 _________PO___ -1 24.8999 74.2849 TC 30 24.7000 74.5000 1 6 313
1941220N21089 1941 42 NI AS NOT_NAMED 1941-08-12 18:00:00 TS 24.9856 74.1867 main 0 0 _________OP___ -1 25.1000 74.1000 TC 30 24.8997 74.2518 1 5 316
1941220N21089 1941 42 NI AS NOT_NAMED 1941-08-12 21:00:00 TS 25.1799 73.9891 main 0 0 _________PP___ -1 25.3001 73.9052 TC 30 25.0997 74.0450 1 5 318
1941220N21089 1941 42 NI AS NOT_NAMED 1941-08-13 00:00:00 TS 25.3666 73.8105 main 0 0 _________OP___ -1 25.5000 73.7000 TC 30 25.2998 73.8657 1 4 321
1941220N21089 1941 42 NI AS NOT_NAMED 1941-08-13 03:00:00 NR 25.5000 73.7000 main 0 __________O___ -1 TC 25.5000 73.7000 1 3 325

About IBTrACS Database

This database is a web-friendly format of International Best Track Archive for Climate Stewardship (IBTrACS), a global best track data archive curated by NOAA dating back to 1842.

Updated: 2021-11-26